Etusivu
METAR-TAF:

METAR-TAF

Lentoasemat :

Akrotiri, Kypros

Leveyspiiri: 34-35N, Pituuspiiri: 032-59E, korkeus merenpinnasta: 23 m

Tämänhetkinen sää

Tämä raportti tehtiin 27 minuuttia sitten, kello 16.50 UTC
Tuuli 15 kn lännestä/luoteesta
Lämpötila 20°C
Kosteus 60%
Ilmanpaine 1015 hPa
Näkyvyys 10 km tai enemmän
Muutamia pilviä 4000 ft:n korkeudessa

METAR: LCRA 291650Z 29015KT 9999 FEW040 20/12 Q1015 NOSIG

Aika: 20:17 (17:17 UTC)

Sääennuste

Tämä raportti tehtiin 4 tuntia ja 10 minuuttia sitten, kello 13.07 UTC
Ennuste voimassa 29. päivästä klo 15 UTC - 30. päivään klo 09 UTC
Tuuli 18 kn lännestä puuskistuen 28 kn:hen
Näkyvyys 10 km tai enemmän
Muutamia pilviä 4000 ft:n korkeudessa
Tulossa
29. päivästä klo 18 UTC - 29. päivään klo 21 UTC
Tuuli 12 kn lännestä

TAF: LCRA 291307Z 2915/3009 26018G28KT 9999 FEW040 BECMG 2918/2921 28012KT

Säähavainnot ja -ennusteet yli 4000 lentoasemalta (METAR- ja TAF-raportit).

Käytössä olevat sääasemat on merkitty karttaan keltaisilla ja punaisilla pisteillä.

Aseta hiiri pisteen päälle nähdäksesi sääaseman nimen.

Klikkaa sitten nähdäksesi säähavainnot ja -ennusteet.

Kartan vaihtaminen: klikkaa mustalla rastilla varustettuja vihreitä pisteitä, niin voit zoomata sisään; viivalla varustettua vihreää pistettä, niin voit zoomata ulos tai vihreitä nuolia, niin pääset viereisille kartoille.


METAR-TAF: